Time;durP1;ratioP1;P1;durP2;ratioP2;P2;SDS_P1;SDS_P2;PMS_P1;PMS_P2;Temp;Humidity;BMP_temperature;BMP_pressure;BME280_temperature;BME280_humidity;BME280_pressure;Samples;Min_cycle;Max_cycle;Signal;HPM_P1;HPM_P2
2021/01/28 00:00:38;;;;;;;6.80;6.20;;;;;;;2.64;81.95;95024.97;5051658;28;20658;-69
2021/01/28 00:03:05;;;;;;;6.63;5.63;;;;;;;2.77;82.22;95019.28;5052032;28;20119;-70
2021/01/28 00:05:33;;;;;;;5.57;5.18;;;;;;;2.50;82.80;95032.53;5051396;28;20041;-69
2021/01/28 00:07:59;;;;;;;5.97;5.47;;;;;;;2.80;82.10;95016.91;5051198;28;20033;-69
2021/01/28 00:10:26;;;;;;;5.50;5.00;;;;;;;2.52;82.53;95015.50;5051488;28;20041;-69
2021/01/28 00:12:51;;;;;;;5.70;5.10;;;;;;;2.32;83.24;95013.56;5049807;28;20067;-70
2021/01/28 00:15:20;;;;;;;5.60;5.13;;;;;;;2.49;82.73;95008.13;5053470;28;20029;-69
2021/01/28 00:17:46;;;;;;;6.18;5.43;;;;;;;2.65;81.71;95010.81;5051015;28;20569;-69
2021/01/28 00:20:20;;;;;;;6.95;6.25;;;;;;;2.79;82.43;95025.03;5050284;28;20045;-69
2021/01/28 00:22:46;;;;;;;6.43;5.82;;;;;;;2.68;82.40;95023.44;5050626;28;20536;-69
2021/01/28 00:25:14;;;;;;;6.72;6.03;;;;;;;2.86;81.74;95023.75;5049521;28;20037;-69
2021/01/28 00:27:40;;;;;;;5.60;5.20;;;;;;;2.59;82.81;95023.13;5049282;28;20385;-69
2021/01/28 00:30:09;;;;;;;6.43;5.93;;;;;;;2.76;82.55;95018.44;5052765;28;20104;-69
2021/01/28 00:32:34;;;;;;;6.15;5.53;;;;;;;2.88;81.97;95002.50;5050397;28;20044;-69
2021/01/28 00:34:59;;;;;;;5.43;5.03;;;;;;;2.90;81.72;95004.84;5050588;28;20052;-68
2021/01/28 00:37:25;;;;;;;5.38;4.97;;;;;;;2.54;82.02;94981.09;5050519;28;20505;-68
2021/01/28 00:39:51;;;;;;;5.85;5.35;;;;;;;2.87;81.36;95003.53;5050291;28;20041;-69
2021/01/28 00:42:16;;;;;;;6.35;5.85;;;;;;;3.18;80.34;95004.41;5052461;28;20037;-68
2021/01/28 00:44:42;;;;;;;6.47;5.90;;;;;;;3.08;80.41;94994.66;5049343;28;20143;-69
2021/01/28 00:47:07;;;;;;;5.57;5.07;;;;;;;3.09;79.78;94987.56;5050266;28;20041;-69
2021/01/28 00:49:32;;;;;;;5.68;5.18;;;;;;;3.06;80.15;94983.59;5050415;28;20064;-70
2021/01/28 00:51:57;;;;;;;5.80;5.30;;;;;;;3.19;79.76;94965.75;5050082;28;20041;-69
2021/01/28 00:54:23;;;;;;;5.40;5.00;;;;;;;3.15;79.80;94985.72;5052227;28;20078;-69
2021/01/28 00:56:48;;;;;;;5.80;5.22;;;;;;;3.13;80.55;94991.25;5050084;28;20045;-69
2021/01/28 00:59:13;;;;;;;5.85;5.40;;;;;;;3.06;80.90;94996.75;5050173;28;20087;-69
2021/01/28 01:01:38;;;;;;;5.25;4.85;;;;;;;3.12;79.95;94987.84;5050172;28;20099;-69
2021/01/28 01:04:04;;;;;;;5.25;4.85;;;;;;;2.98;80.63;94984.13;5050283;28;20049;-69
2021/01/28 01:06:29;;;;;;;5.18;4.78;;;;;;;2.96;81.44;94977.53;5050214;28;20056;-69
2021/01/28 01:08:55;;;;;;;5.40;5.00;;;;;;;3.00;80.95;94982.03;5051586;28;20546;-69
2021/01/28 01:11:20;;;;;;;5.60;5.10;;;;;;;2.85;82.30;94981.97;5049595;28;20110;-70
2021/01/28 01:13:46;;;;;;;5.68;4.68;;;;;;;3.11;80.63;94982.81;5050085;28;20041;-68
2021/01/28 01:16:12;;;;;;;4.68;4.28;;;;;;;3.02;81.53;94995.69;5049861;28;20037;-69
2021/01/28 01:18:39;;;;;;;5.55;5.10;;;;;;;3.09;81.66;94992.81;5049416;28;20029;-69
2021/01/28 01:21:06;;;;;;;5.07;4.65;;;;;;;3.15;80.99;94997.03;5052108;28;20036;-69
2021/01/28 01:23:32;;;;;;;4.50;4.18;;;;;;;2.98;80.90;94993.84;5049873;28;20490;-68
2021/01/28 01:25:58;;;;;;;5.00;4.60;;;;;;;2.87;81.28;94977.28;5049740;28;20094;-69
2021/01/28 01:28:27;;;;;;;5.25;4.85;;;;;;;3.04;81.40;95000.69;5048545;28;20459;-69
2021/01/28 01:30:54;;;;;;;5.53;5.03;;;;;;;3.16;80.76;94988.09;5047657;28;20051;-69
2021/01/28 01:33:19;;;;;;;5.50;5.07;;;;;;;3.20;80.29;94988.38;5051752;28;20039;-69
2021/01/28 01:35:44;;;;;;;5.88;5.38;;;;;;;3.16;80.27;94982.84;5049849;28;20040;-69
2021/01/28 01:38:10;;;;;;;4.78;4.38;;;;;;;3.05;80.73;94995.16;5047953;28;20068;-69
2021/01/28 01:40:39;;;;;;;5.25;4.85;;;;;;;3.08;80.89;95002.53;5049177;28;20041;-70
2021/01/28 01:43:07;;;;;;;4.90;4.55;;;;;;;3.24;80.94;94990.22;5047978;28;20098;-68
2021/01/28 01:45:45;;;;;;;5.28;4.88;;;;;;;3.74;80.09;94988.66;5049622;28;20090;-70
2021/01/28 01:48:17;;;;;;;5.00;4.60;;;;;;;3.70;79.35;94979.72;5051258;28;20108;-69
2021/01/28 01:51:01;;;;;;;5.40;4.90;;;;;;;3.68;78.35;94983.66;5049395;28;20065;-69
2021/01/28 01:53:31;;;;;;;4.75;4.35;;;;;;;3.84;78.06;94983.41;5049268;28;20067;-69
2021/01/28 01:55:59;;;;;;;5.20;4.80;;;;;;;3.79;77.77;94969.47;5049661;28;20037;-69
2021/01/28 01:58:32;;;;;;;4.97;4.53;;;;;;;3.99;77.43;94974.66;5047786;28;20503;-69
2021/01/28 02:00:57;;;;;;;4.35;4.03;;;;;;;3.90;77.21;94984.19;5049409;28;20041;-69
2021/01/28 02:03:23;;;;;;;4.32;4.03;;;;;;;3.39;78.98;94979.72;5050935;28;20047;-69
2021/01/28 02:05:59;;;;;;;4.85;4.45;;;;;;;3.38;79.63;94980.00;5047609;28;20072;-69
2021/01/28 02:08:25;;;;;;;4.60;4.20;;;;;;;3.51;79.28;94970.78;5048865;28;20048;-69
2021/01/28 02:10:50;;;;;;;5.20;4.80;;;;;;;3.64;79.12;94971.03;5048804;28;20049;-69
2021/01/28 02:13:15;;;;;;;5.25;4.75;;;;;;;3.75;78.08;94965.78;5047499;28;20041;-69
2021/01/28 02:15:41;;;;;;;4.18;3.88;;;;;;;3.48;79.20;94971.28;5048879;28;20035;-68
2021/01/28 02:18:06;;;;;;;4.75;4.35;;;;;;;4.00;78.28;94957.84;5050741;28;20025;-69
2021/01/28 02:20:57;;;;;;;4.88;4.47;;;;;;;3.91;77.41;94965.47;5049024;28;20047;-69
2021/01/28 02:23:42;;;;;;;5.25;4.63;;;;;;;4.03;76.50;94945.97;5047950;28;20041;-68
2021/01/28 02:26:08;;;;;;;4.97;4.57;;;;;;;4.39;76.48;94967.72;5047847;28;20405;-69
2021/01/28 02:28:34;;;;;;;4.28;3.97;;;;;;;3.98;76.55;94953.88;5047818;28;20131;-68
2021/01/28 02:31:00;;;;;;;4.15;3.85;;;;;;;3.77;77.44;94958.41;5049015;28;20759;-69
2021/01/28 02:33:48;;;;;;;4.78;4.38;;;;;;;4.14;77.49;94961.47;5051107;28;20489;-69
2021/01/28 02:36:14;;;;;;;4.57;4.18;;;;;;;4.30;76.90;94951.72;5049295;28;20064;-69
2021/01/28 02:38:40;;;;;;;4.82;4.43;;;;;;;4.48;76.92;94947.69;5048641;28;20398;-69
2021/01/28 02:41:08;;;;;;;4.07;3.78;;;;;;;4.65;76.49;94944.72;5048884;28;20075;-68
2021/01/28 02:43:34;;;;;;;4.25;3.95;;;;;;;4.66;75.73;94933.13;5052166;28;20044;-69
2021/01/28 02:46:12;;;;;;;4.00;3.70;;;;;;;4.69;75.14;94943.09;5053088;28;20045;-69
2021/01/28 02:48:38;;;;;;;5.25;4.78;;;;;;;4.76;74.99;94937.53;5052419;28;20043;-69
2021/01/28 02:51:05;;;;;;;4.25;3.92;;;;;;;4.86;75.05;94950.66;5053423;28;20029;-69
2021/01/28 02:53:36;;;;;;;4.20;3.90;;;;;;;4.72;74.66;94942.59;5052626;28;20091;-69
2021/01/28 02:56:01;;;;;;;4.07;3.78;;;;;;;4.71;74.59;94943.66;5052582;28;20053;-69
2021/01/28 02:58:26;;;;;;;4.22;3.92;;;;;;;4.80;74.90;94935.94;5050953;28;20576;-69
2021/01/28 03:00:52;;;;;;;3.22;3.03;;;;;;;4.81;74.38;94935.69;5052693;28;20481;-68
2021/01/28 03:03:17;;;;;;;3.25;3.05;;;;;;;4.86;74.07;94932.22;5054326;28;20029;-69
2021/01/28 03:05:42;;;;;;;3.78;3.47;;;;;;;4.95;74.12;94918.19;5052534;28;20037;-68
2021/01/28 03:08:08;;;;;;;3.55;3.33;;;;;;;5.04;73.98;94918.41;5052486;28;20033;-69
2021/01/28 03:10:33;;;;;;;3.85;3.55;;;;;;;5.11;73.36;94912.81;5052666;28;20033;-68
2021/01/28 03:12:59;;;;;;;3.72;3.42;;;;;;;5.16;73.11;94920.69;5050936;28;20044;-68
2021/01/28 03:15:24;;;;;;;4.13;3.83;;;;;;;5.14;72.89;94913.06;5054306;28;20036;-68
2021/01/28 03:17:52;;;;;;;4.40;4.00;;;;;;;5.26;72.60;94906.66;5052064;28;20045;-69
2021/01/28 03:20:19;;;;;;;4.50;4.20;;;;;;;5.30;72.54;94907.69;5052141;28;20045;-68
2021/01/28 03:22:44;;;;;;;4.65;4.25;;;;;;;5.30;72.59;94889.22;5051990;28;20049;-68
2021/01/28 03:25:11;;;;;;;4.72;4.40;;;;;;;5.40;72.26;94899.69;5050796;28;20609;-69
2021/01/28 03:27:37;;;;;;;4.70;4.30;;;;;;;5.38;71.84;94889.41;5052063;28;20110;-69
2021/01/28 03:30:09;;;;;;;3.80;3.55;;;;;;;5.31;72.27;94898.69;5052822;28;20059;-69
2021/01/28 03:32:35;;;;;;;3.77;3.57;;;;;;;5.31;71.92;94877.59;5050767;28;20080;-68
2021/01/28 03:35:00;;;;;;;4.00;3.70;;;;;;;5.42;72.00;94887.78;5051099;28;20337;-70
2021/01/28 03:37:26;;;;;;;3.03;2.83;;;;;;;5.38;71.71;94893.91;5051910;28;20099;-69
2021/01/28 03:39:51;;;;;;;3.40;3.20;;;;;;;5.36;71.58;94888.09;5052137;28;20072;-69
2021/01/28 03:42:16;;;;;;;3.35;3.15;;;;;;;5.33;71.57;94881.53;5054060;28;20055;-69
2021/01/28 03:44:42;;;;;;;3.03;2.83;;;;;;;5.41;71.62;94891.47;5051957;28;20084;-69
2021/01/28 03:47:07;;;;;;;3.00;2.80;;;;;;;5.45;71.96;94894.38;5050200;28;20498;-69
2021/01/28 03:49:32;;;;;;;2.60;2.40;;;;;;;5.08;71.91;94877.25;5051492;28;20045;-69
2021/01/28 03:51:58;;;;;;;2.92;2.72;;;;;;;5.00;72.32;94883.09;5051416;28;20053;-70
2021/01/28 03:54:23;;;;;;;2.97;2.78;;;;;;;5.06;72.88;94883.84;5052522;28;20655;-70
2021/01/28 03:56:48;;;;;;;3.28;3.08;;;;;;;5.16;72.67;94874.00;5051541;28;20052;-69
2021/01/28 03:59:13;;;;;;;2.92;2.72;;;;;;;5.19;72.76;94867.41;5051636;28;20127;-70
2021/01/28 04:01:39;;;;;;;3.17;2.97;;;;;;;5.36;72.40;94874.91;5051091;28;20043;-69
2021/01/28 04:04:04;;;;;;;2.70;2.50;;;;;;;5.46;72.47;94877.47;5051135;28;20060;-69
2021/01/28 04:06:29;;;;;;;3.10;2.90;;;;;;;5.55;72.12;94881.09;5050016;28;20033;-69
2021/01/28 04:08:55;;;;;;;3.35;3.13;;;;;;;5.56;72.11;94871.31;5051988;28;20593;-69
2021/01/28 04:11:20;;;;;;;2.92;2.72;;;;;;;5.56;71.98;94858.13;5050980;28;20060;-70
2021/01/28 04:13:45;;;;;;;2.90;2.70;;;;;;;5.55;71.33;94854.69;5051368;28;20535;-69
2021/01/28 04:16:10;;;;;;;3.05;2.85;;;;;;;5.58;71.87;94853.34;5051098;28;20086;-69
2021/01/28 04:18:36;;;;;;;2.88;2.67;;;;;;;5.53;71.80;94841.00;5049792;28;20029;-69
2021/01/28 04:21:01;;;;;;;2.50;2.25;;;;;;;5.37;71.24;94826.38;5052842;28;20032;-69
2021/01/28 04:23:26;;;;;;;3.10;2.83;;;;;;;5.34;71.53;94834.84;5049527;28;20033;-69
2021/01/28 04:25:52;;;;;;;3.15;2.40;;;;;;;5.22;72.26;94836.03;5050958;28;20076;-69
2021/01/28 04:28:17;;;;;;;2.25;2.15;;;;;;;5.25;71.76;94829.38;5050667;28;20394;-69
2021/01/28 04:30:42;;;;;;;5.13;2.53;;;;;;;5.24;72.26;94821.75;5050941;28;20028;-69
2021/01/28 04:33:09;;;;;;;2.70;2.20;;;;;;;5.14;72.69;94827.91;5052569;28;20025;-70
2021/01/28 04:35:34;;;;;;;2.78;2.58;;;;;;;5.06;73.50;94824.00;5050411;28;20041;-70
2021/01/28 04:38:00;;;;;;;2.83;2.63;;;;;;;4.78;73.80;94807.09;5050562;28;20043;-70
2021/01/28 04:40:34;;;;;;;3.05;2.85;;;;;;;5.00;73.59;94825.13;5050724;28;20407;-69
2021/01/28 04:43:07;;;;;;;3.38;3.08;;;;;;;4.66;75.00;94819.84;5050463;28;20033;-69
2021/01/28 04:45:32;;;;;;;;;;;;;;;4.61;75.28;94810.13;5050975;28;20025;-68
2021/01/28 04:48:01;;;;;;;3.10;2.90;;;;;;;4.69;75.63;94788.44;5052292;28;19927;-69
2021/01/28 04:50:31;;;;;;;3.20;3.00;;;;;;;4.81;75.67;94787.31;5050307;28;20433;-69
2021/01/28 04:53:02;;;;;;;3.13;2.92;;;;;;;4.40;76.00;94792.84;5050444;28;20041;-68
2021/01/28 04:55:38;;;;;;;3.17;2.88;;;;;;;4.11;77.73;94783.03;5049142;28;20055;-68
2021/01/28 04:58:04;;;;;;;3.30;3.10;;;;;;;4.38;77.39;94774.72;5050134;28;20116;-68
2021/01/28 05:00:30;;;;;;;2.90;2.70;;;;;;;4.45;77.75;94763.84;5050328;28;20424;-67
2021/01/28 05:03:04;;;;;;;3.25;2.92;;;;;;;4.53;77.30;94754.59;5051936;28;20060;-68
2021/01/28 05:05:30;;;;;;;2.58;2.38;;;;;;;4.03;79.01;94740.69;5049899;28;20668;-68
2021/01/28 05:07:55;;;;;;;2.75;2.55;;;;;;;4.15;78.88;94723.53;5050032;28;20037;-68
2021/01/28 05:10:26;;;;;;;2.45;2.25;;;;;;;4.18;79.14;94741.41;5050248;28;20049;-69
2021/01/28 05:13:01;;;;;;;3.03;2.83;;;;;;;4.17;79.71;94737.19;5049765;28;20090;-68
2021/01/28 05:15:33;;;;;;;2.97;2.70;;;;;;;4.20;79.55;94740.31;5051943;28;20032;-71
2021/01/28 05:17:59;;;;;;;2.50;2.30;;;;;;;3.72;81.52;94732.19;5048761;28;20044;-72
2021/01/28 05:20:26;;;;;;;2.55;2.35;;;;;;;3.81;81.44;94723.47;5047529;28;20083;-71
2021/01/28 05:23:01;;;;;;;2.38;1.95;;;;;;;3.92;80.72;94717.06;5047698;28;20044;-69
2021/01/28 05:25:26;;;;;;;2.50;2.30;;;;;;;3.96;80.98;94719.97;5049777;28;20045;-72
2021/01/28 05:27:52;;;;;;;2.50;2.30;;;;;;;4.12;80.20;94687.22;5049411;28;20075;-69
2021/01/28 05:30:35;;;;;;;2.42;2.22;;;;;;;4.03;80.71;94712.53;5052542;28;20029;-69
2021/01/28 05:33:01;;;;;;;2.15;1.95;;;;;;;3.88;80.85;94686.31;5049572;28;20052;-71
2021/01/28 05:35:32;;;;;;;2.63;2.42;;;;;;;3.65;81.48;94666.72;5051684;28;20073;-66
2021/01/28 05:38:09;;;;;;;3.22;3.03;;;;;;;4.15;80.44;94696.44;5050378;28;20055;-72
2021/01/28 05:40:37;;;;;;;3.03;2.83;;;;;;;4.43;80.00;94692.25;5049471;28;20128;-73
2021/01/28 05:43:40;;;;;;;3.22;3.03;;;;;;;4.59;79.12;94696.34;5051614;28;20056;-69
2021/01/28 05:46:19;;;;;;;2.72;2.53;;;;;;;4.55;78.91;94707.69;5050422;28;20506;-69
2021/01/28 05:48:58;;;;;;;2.45;2.28;;;;;;;4.69;78.57;94698.88;5050612;28;20429;-69
2021/01/28 05:51:24;;;;;;;3.13;2.92;;;;;;;4.71;78.11;94677.53;5052182;28;20028;-69
2021/01/28 05:54:00;;;;;;;3.15;2.70;;;;;;;4.82;77.44;94688.78;5048981;28;20268;-70
2021/01/28 05:56:27;;;;;;;3.30;3.00;;;;;;;4.84;77.67;94694.53;5050251;28;20056;-68
2021/01/28 05:59:19;;;;;;;2.70;2.50;;;;;;;4.90;77.63;94674.97;5049797;28;20036;-69
2021/01/28 06:02:11;;;;;;;3.00;2.80;;;;;;;5.04;77.61;94669.84;5048657;28;20120;-69
2021/01/28 06:04:43;;;;;;;3.08;2.75;;;;;;;5.28;77.23;94678.53;5049617;28;20037;-68
2021/01/28 06:07:50;;;;;;;4.18;3.15;;;;;;;5.41;76.43;94672.56;5048712;28;20044;-69
2021/01/28 06:10:21;;;;;;;2.67;2.47;;;;;;;5.43;75.98;94672.28;5042169;28;20041;-67
2021/01/28 06:13:05;;;;;;;3.10;2.90;;;;;;;5.52;75.71;94672.44;5047738;28;20056;-77
2021/01/28 06:15:58;;;;;;;3.38;2.60;;;;;;;4.89;76.71;94671.56;5069219;28;20024;-74
2021/01/28 06:18:46;;;;;;;2.63;2.42;;;;;;;4.67;77.89;94676.53;5049096;28;20032;-74
2021/01/28 06:21:29;;;;;;;3.53;3.22;;;;;;;4.92;78.02;94670.22;5049867;28;20239;-69
2021/01/28 06:24:15;;;;;;;430.45;169.20;;;;;;;5.05;78.31;94660.84;5064551;28;20048;-71
2021/01/28 06:27:15;;;;;;;10.57;6.38;;;;;;;5.33;77.72;94659.22;5049285;28;20040;-70
2021/01/28 06:30:01;;;;;;;4.22;3.78;;;;;;;5.52;77.07;94654.75;5048019;28;20435;-70
2021/01/28 06:32:57;;;;;;;3.75;3.45;;;;;;;5.55;76.83;94659.47;5049135;28;20048;-70
2021/01/28 06:36:00;;;;;;;3.80;3.10;;;;;;;5.50;75.70;94646.34;5049679;28;20041;-70
2021/01/28 06:38:31;;;;;;;4.43;4.13;;;;;;;5.69;75.77;94639.25;5064492;28;20751;-69
2021/01/28 06:41:03;;;;;;;5.63;4.95;;;;;;;5.81;75.24;94643.31;5049783;28;20079;-70
2021/01/28 06:43:47;;;;;;;5.47;4.80;;;;;;;5.67;74.68;94599.16;5049593;28;20033;-70
2021/01/28 06:46:30;;;;;;;4.75;4.25;;;;;;;5.92;74.79;94627.06;5049300;28;20041;-71
2021/01/28 06:49:10;;;;;;;3.80;3.50;;;;;;;5.93;73.88;94630.47;5047987;28;20060;-72
2021/01/28 06:51:51;;;;;;;4.15;3.30;;;;;;;6.03;73.75;94626.91;5047574;28;20057;-73
2021/01/28 06:54:23;;;;;;;3.95;3.50;;;;;;;5.95;73.62;94609.88;5050199;28;20029;-72
2021/01/28 06:57:00;;;;;;;3.92;3.22;;;;;;;6.04;73.98;94617.91;5064849;28;20037;-77
2021/01/28 06:59:42;;;;;;;4.05;3.75;;;;;;;6.02;73.57;94617.41;5049202;28;20033;-72
2021/01/28 07:02:35;;;;;;;5.22;3.83;;;;;;;6.02;73.66;94614.78;5046994;28;20052;-72
2021/01/28 07:05:30;;;;;;;4.65;3.67;;;;;;;5.92;74.35;94608.56;5049776;28;20422;-71
2021/01/28 07:08:11;;;;;;;4.50;4.10;;;;;;;5.99;74.31;94618.78;5049074;28;20057;-69
2021/01/28 07:10:40;;;;;;;4.65;3.92;;;;;;;5.97;74.62;94605.09;5049203;28;20041;-69
2021/01/28 07:13:10;;;;;;;4.68;4.28;;;;;;;5.93;74.29;94601.44;5048871;28;20037;-69
2021/01/28 07:15:35;;;;;;;4.43;4.03;;;;;;;6.05;74.02;94603.66;5047157;28;20021;-70
2021/01/28 07:18:11;;;;;;;5.10;4.07;;;;;;;6.03;73.41;94601.28;5051100;28;20025;-67
2021/01/28 07:20:57;;;;;;;4.40;4.00;;;;;;;6.01;73.72;94590.25;5048824;28;20094;-71
2021/01/28 07:23:31;;;;;;;4.13;3.80;;;;;;;6.16;73.88;94607.69;5048107;28;20041;-71
2021/01/28 07:26:15;;;;;;;4.32;3.78;;;;;;;6.17;73.63;94606.63;5064772;28;20126;-71
2021/01/28 07:28:46;;;;;;;4.63;3.80;;;;;;;6.16;74.36;94597.91;5048884;28;20116;-70
2021/01/28 07:31:20;;;;;;;5.65;4.18;;;;;;;6.14;74.07;94586.88;5051532;28;20494;-68
2021/01/28 07:34:05;;;;;;;6.30;3.85;;;;;;;6.07;74.23;94575.09;5067939;28;20119;-69
2021/01/28 07:36:30;;;;;;;5.32;4.07;;;;;;;6.16;74.04;94584.72;5051590;28;20044;-68
2021/01/28 07:39:00;;;;;;;5.90;3.75;;;;;;;6.10;74.02;94579.81;5069851;28;20028;-69
2021/01/28 07:41:50;;;;;;;6.97;3.83;;;;;;;6.15;73.57;94567.31;5052304;28;20045;-69
2021/01/28 07:44:41;;;;;;;9.25;3.80;;;;;;;6.20;74.57;94563.81;5067509;28;20155;-68
2021/01/28 07:47:34;;;;;;;7.68;4.35;;;;;;;6.21;74.22;94560.09;5046994;28;20064;-68
2021/01/28 07:50:31;;;;;;;12.88;5.35;;;;;;;6.24;73.54;94551.56;5052285;28;20047;-69
2021/01/28 07:53:17;;;;;;;10.88;4.68;;;;;;;6.28;73.13;94557.84;5038841;28;20646;-68
2021/01/28 07:55:44;;;;;;;16.75;5.30;;;;;;;6.34;72.89;94547.97;5051099;28;20040;-68
2021/01/28 07:58:18;;;;;;;7.22;4.20;;;;;;;6.43;73.77;94554.16;5052156;28;20099;-68
2021/01/28 08:00:44;;;;;;;9.50;3.67;;;;;;;6.45;73.08;94552.03;5052321;28;20021;-68
2021/01/28 08:03:24;;;;;;;11.00;3.70;;;;;;;6.50;72.41;94547.44;5053969;28;20047;-68
2021/01/28 08:05:53;;;;;;;12.05;3.42;;;;;;;6.64;72.20;94544.78;5052217;28;20091;-68
2021/01/28 08:08:20;;;;;;;7.78;2.83;;;;;;;6.70;72.74;94540.94;5052038;28;20040;-68
2021/01/28 08:10:46;;;;;;;7.38;2.85;;;;;;;6.80;72.60;94533.91;5052203;28;20033;-68
2021/01/28 08:13:22;;;;;;;6.20;2.58;;;;;;;6.85;71.54;94541.75;5051920;28;20041;-67
2021/01/28 08:15:54;;;;;;;6.90;2.30;;;;;;;6.92;71.73;94542.16;5050731;28;20048;-68
2021/01/28 08:18:24;;;;;;;6.40;2.00;;;;;;;6.95;71.58;94526.44;5053892;28;20114;-68
2021/01/28 08:21:01;;;;;;;4.03;1.70;;;;;;;7.04;71.87;94523.91;5051582;28;20045;-69
2021/01/28 08:23:27;;;;;;;4.70;1.58;;;;;;;7.06;70.90;94519.09;5051823;28;20067;-68
2021/01/28 08:25:59;;;;;;;1.77;1.30;;;;;;;7.04;70.70;94519.41;5051982;28;20029;-68
2021/01/28 08:28:27;;;;;;;3.30;1.15;;;;;;;7.12;71.05;94512.66;5051220;28;20045;-68
2021/01/28 08:31:25;;;;;;;1.30;1.20;;;;;;;7.21;70.93;94508.19;5066954;28;20108;-69
2021/01/28 08:33:59;;;;;;;1.85;0.93;;;;;;;7.35;70.40;94499.44;5051620;28;20494;-68
2021/01/28 08:36:30;;;;;;;5.63;4.78;;;;;;;7.51;70.18;94495.38;5052189;28;20091;-69
2021/01/28 08:39:12;;;;;;;4.47;1.30;;;;;;;7.58;69.72;94490.47;5051979;28;20040;-68
2021/01/28 08:41:38;;;;;;;0.73;0.65;;;;;;;7.56;69.91;94474.09;5066390;28;20045;-68
2021/01/28 08:44:07;;;;;;;1.10;0.70;;;;;;;7.65;68.84;94474.94;5050158;28;20112;-68
2021/01/28 08:46:34;;;;;;;2.25;1.00;;;;;;;7.60;68.79;94483.00;5051573;28;20127;-70
2021/01/28 08:49:06;;;;;;;0.75;0.70;;;;;;;7.51;68.59;94458.31;5051297;28;20510;-71
2021/01/28 08:51:36;;;;;;;2.20;0.90;;;;;;;7.60;68.88;94459.19;5050067;28;20075;-69
2021/01/28 08:54:06;;;;;;;0.68;0.60;;;;;;;7.76;68.83;94465.66;5053338;28;20025;-69
2021/01/28 08:56:36;;;;;;;1.15;0.57;;;;;;;7.78;68.70;94468.81;5049961;28;20122;-69
2021/01/28 08:59:09;;;;;;;2.42;0.90;;;;;;;7.80;68.77;94448.09;5051239;28;20047;-69
2021/01/28 09:01:40;;;;;;;2.88;0.68;;;;;;;7.79;68.54;94438.59;5051105;28;20190;-69
2021/01/28 09:04:30;;;;;;;1.00;0.65;;;;;;;7.69;68.13;94409.72;5051127;28;20045;-69
2021/01/28 09:06:55;;;;;;;2.53;0.80;;;;;;;7.92;68.27;94442.22;5045248;28;20121;-69
2021/01/28 09:09:27;;;;;;;1.50;0.77;;;;;;;7.99;68.41;94445.25;5053089;28;20032;-69
2021/01/28 09:12:13;;;;;;;1.92;0.70;;;;;;;8.05;67.64;94448.53;5049665;28;20096;-69
2021/01/28 09:14:40;;;;;;;1.52;1.00;;;;;;;8.01;67.90;94429.03;5050982;28;20171;-68
2021/01/28 09:17:18;;;;;;;2.03;1.13;;;;;;;7.98;67.60;94429.63;5050865;28;20037;-68
2021/01/28 09:19:54;;;;;;;1.15;0.63;;;;;;;7.86;67.87;94442.66;5050675;28;20044;-68
2021/01/28 09:22:29;;;;;;;1.45;0.85;;;;;;;7.75;68.00;94436.84;5050551;28;20037;-69
2021/01/28 09:24:54;;;;;;;1.77;0.70;;;;;;;7.66;68.36;94434.16;5050727;28;20048;-68
2021/01/28 09:27:20;;;;;;;1.30;0.50;;;;;;;7.69;68.22;94430.13;5052341;28;20033;-68
2021/01/28 09:29:47;;;;;;;1.45;0.50;;;;;;;7.69;68.63;94432.78;5050523;28;20055;-68
2021/01/28 09:32:18;;;;;;;0.45;0.45;;;;;;;7.44;69.12;94436.81;5049304;28;20482;-68
2021/01/28 09:34:45;;;;;;;1.90;0.65;;;;;;;7.39;69.93;94434.28;5050341;28;20067;-67
2021/01/28 09:37:18;;;;;;;2.38;0.80;;;;;;;7.30;69.49;94428.91;5050211;28;20094;-67
2021/01/28 09:39:51;;;;;;;0.90;0.55;;;;;;;7.23;70.30;94436.50;5050368;28;20028;-68
2021/01/28 09:42:30;;;;;;;0.70;0.52;;;;;;;7.14;70.39;94423.19;5050950;28;20035;-68
2021/01/28 09:45:11;;;;;;;0.50;0.50;;;;;;;7.11;70.52;94421.13;5050832;28;20083;-68
2021/01/28 09:47:37;;;;;;;0.98;0.52;;;;;;;7.06;70.46;94404.59;5050452;28;20091;-68
2021/01/28 09:50:08;;;;;;;1.45;1.00;;;;;;;7.22;70.91;94411.91;5049858;28;20029;-68
2021/01/28 09:52:36;;;;;;;0.97;0.97;;;;;;;7.18;70.47;94394.28;5049206;28;20044;-68
2021/01/28 09:55:07;;;;;;;1.67;0.82;;;;;;;7.36;70.84;94403.91;5048876;28;20052;-67
2021/01/28 09:57:33;;;;;;;0.80;0.80;;;;;;;7.40;70.77;94404.88;5049020;28;20028;-71
2021/01/28 09:59:58;;;;;;;0.93;0.70;;;;;;;7.36;70.19;94392.53;5052338;28;20021;-71
2021/01/28 10:02:36;;;;;;;0.75;0.63;;;;;;;7.26;70.41;94378.47;5049918;28;20052;-70
2021/01/28 10:05:02;;;;;;;0.95;0.52;;;;;;;7.35;70.13;94365.31;5050219;28;20518;-71
2021/01/28 10:07:27;;;;;;;1.67;0.80;;;;;;;7.37;70.68;94355.22;5048626;28;20041;-72
2021/01/28 10:09:53;;;;;;;1.00;0.70;;;;;;;7.22;70.54;94343.16;5050213;28;20479;-71
2021/01/28 10:12:21;;;;;;;1.63;0.60;;;;;;;7.19;70.96;94335.03;5051781;28;20021;-71
2021/01/28 10:14:47;;;;;;;1.83;1.00;;;;;;;7.39;70.61;94344.31;5049963;28;20119;-71
2021/01/28 10:17:14;;;;;;;0.88;0.85;;;;;;;7.45;70.05;94335.94;5048649;28;20041;-70
2021/01/28 10:19:42;;;;;;;2.30;1.25;;;;;;;7.49;70.39;94309.66;5050038;28;20120;-69
2021/01/28 10:22:09;;;;;;;1.42;1.00;;;;;;;7.64;69.88;94333.09;5050011;28;20391;-73
2021/01/28 10:24:35;;;;;;;1.88;0.90;;;;;;;7.65;69.46;94297.59;5050053;28;20021;-69
2021/01/28 10:27:00;;;;;;;1.33;0.90;;;;;;;7.38;69.27;94295.16;5051681;28;20374;-69
2021/01/28 10:29:25;;;;;;;1.77;0.90;;;;;;;7.63;69.75;94291.06;5049703;28;20039;-69
2021/01/28 10:31:51;;;;;;;0.80;0.80;;;;;;;7.75;69.94;94288.59;5048013;28;20068;-69
2021/01/28 10:34:17;;;;;;;3.40;0.90;;;;;;;7.68;69.92;94283.00;5048294;28;20130;-69
2021/01/28 10:36:42;;;;;;;1.98;0.90;;;;;;;7.57;69.95;94271.88;5065000;28;20033;-69
2021/01/28 10:39:08;;;;;;;1.35;1.05;;;;;;;7.39;70.21;94265.72;5051584;28;20040;-70
2021/01/28 10:41:33;;;;;;;1.23;1.13;;;;;;;7.47;70.56;94251.78;5048110;28;20045;-70
2021/01/28 10:43:58;;;;;;;1.10;0.80;;;;;;;7.34;70.95;94275.66;5049799;28;20049;-70
2021/01/28 10:46:24;;;;;;;2.42;1.10;;;;;;;7.09;72.65;94267.28;5048386;28;20095;-71
2021/01/28 10:48:49;;;;;;;1.23;0.98;;;;;;;7.04;72.67;94244.41;5049826;28;20465;-71
2021/01/28 10:51:14;;;;;;;1.25;1.00;;;;;;;7.11;72.28;94246.59;5051131;28;20110;-73
2021/01/28 10:53:40;;;;;;;1.75;0.98;;;;;;;7.02;72.76;94211.41;5048493;28;20110;-71
2021/01/28 10:56:07;;;;;;;1.58;0.90;;;;;;;6.98;73.44;94250.13;5048238;28;20131;-70
2021/01/28 10:58:33;;;;;;;1.10;1.00;;;;;;;7.00;73.07;94232.09;5049207;28;20037;-70
2021/01/28 11:00:58;;;;;;;0.90;0.90;;;;;;;7.18;72.91;94233.75;5049625;28;20048;-69
2021/01/28 11:03:24;;;;;;;1.33;1.02;;;;;;;7.32;72.30;94256.66;5051463;28;20371;-70
2021/01/28 11:05:50;;;;;;;2.05;1.25;;;;;;;7.03;72.88;94231.50;5053614;28;20041;-71
2021/01/28 11:08:16;;;;;;;2.17;0.80;;;;;;;6.84;74.47;94249.41;5053281;28;20116;-70
2021/01/28 11:10:41;;;;;;;1.23;0.70;;;;;;;6.53;75.52;94226.34;5052026;28;20094;-69
2021/01/28 11:13:07;;;;;;;1.30;0.82;;;;;;;6.74;75.24;94235.34;5053032;28;20047;-71
2021/01/28 11:15:36;;;;;;;1.17;0.88;;;;;;;6.93;75.59;94226.44;5053584;28;20029;-82
2021/01/28 11:18:04;;;;;;;1.70;0.70;;;;;;;6.40;75.12;94198.16;5055218;28;20378;-74
2021/01/28 11:20:31;;;;;;;1.27;0.60;;;;;;;6.55;75.17;94173.97;5052916;28;20128;-72
2021/01/28 11:22:56;;;;;;;0.60;0.60;;;;;;;6.62;75.26;94179.63;5051921;28;20029;-72
2021/01/28 11:25:23;;;;;;;0.90;0.70;;;;;;;6.59;76.01;94198.72;5053170;28;20441;-73
2021/01/28 11:27:49;;;;;;;0.77;0.60;;;;;;;6.46;76.40;94186.38;5051654;28;20459;-69
2021/01/28 11:30:17;;;;;;;1.67;0.95;;;;;;;6.67;75.51;94176.09;5055002;28;20021;-75
2021/01/28 11:32:46;;;;;;;1.02;0.80;;;;;;;6.22;75.13;94129.34;5051563;28;20037;-71
2021/01/28 11:35:13;;;;;;;1.17;0.65;;;;;;;6.68;75.43;94159.91;5053204;28;20095;-69
2021/01/28 11:37:38;;;;;;;1.83;0.98;;;;;;;6.62;75.73;94155.84;5051379;28;20049;-73
2021/01/28 11:40:05;;;;;;;0.68;0.68;;;;;;;6.73;75.13;94146.59;5052935;28;20033;-70
2021/01/28 11:42:31;;;;;;;1.08;0.80;;;;;;;6.97;75.93;94158.69;5052337;28;20466;-71
2021/01/28 11:44:56;;;;;;;2.00;0.65;;;;;;;6.89;75.36;94141.69;5053279;28;20036;-73
2021/01/28 11:47:24;;;;;;;0.73;0.73;;;;;;;7.07;75.21;94133.84;5052457;28;20033;-72
2021/01/28 11:49:50;;;;;;;1.58;0.73;;;;;;;6.87;75.79;94132.50;5051073;28;20041;-73
2021/01/28 11:52:15;;;;;;;1.30;0.70;;;;;;;7.11;74.81;94129.47;5052464;28;20037;-74
2021/01/28 11:54:41;;;;;;;1.00;0.80;;;;;;;6.48;77.34;94144.56;5052299;28;20024;-72
2021/01/28 11:57:06;;;;;;;0.82;0.47;;;;;;;6.10;79.34;94129.13;5069727;28;20025;-73